Ana Sayfa
METAR-TAF:

METAR-TAF

Havaalanları :

Monclova, Meksika

Enlem: 26-53N, Boylam: 101-25W, yükseklik: 615 m

Güncel hava durumu gözlemi

Rapor saat 23:40 UTC de 38 dakika önce yapıldı.
Sakin rüzgar
Sıcaklık 20°C
Nem 13%
Basınç 1023 hPa
Görüş mesafesi: 19.3 km
Açık gökyüzü

METAR: MMMV 272340Z 00000KT 12SM SKC 20/M09 A3022

Saat: 18:18 (00:18 UTC)

Tahmin

Rapor saat 17:17 UTC de 7 saat ve 1 dakika önce yapıldı.
Ayın 27'si saat 18 UTC'den ayın 28'si saat 18 UTC'ye kadar geçerli Tahmin
Rüzgar doğu/kuzeydoğudan 10 kt
Görüş mesafesi: 10 km
Açık gökyüzü
Ayın 28'si saat 1200 UTC'den
Rüzgar kuzeydan kt
Görüş mesafesi: 8.0 km
Açık gökyüzü
Toz Pusu

TAF: MMMV 271717Z 2718/2818 06010KT P6SM SKC FM281200 00000KT 5SM HZ SKC

4.000'den fazla havaalanı için hava durumu gözlemleri ve tahminleri (METAR ve TAF raporları).

Kullanılabilir istasyonlar harita üzerinde sarı ve kırmızı noktalarla gösterilir.

İstasyonun adını görmek için fareyi noktanın üzerinde gezdirin.

Sonrasında hava gözlem ve tahminlerini görmek için tıklayın.

Haritayı değiştirmek için: yaklaştırmak için siyah artı işaretli yeşil düğmeye ve uzaklaştırmak için de eksi işaretli düğmeye hızla tıklayın; bitişik haritalar için yeşil okları kullanın.


METAR-TAF: